CSZ648 GCXO-TNCM
Flight info
| Callsign | CSZ648 |
|---|---|
| Flight time | N/A |
| Altitude | 34000 |
| Route | TFN N728 LOMAS N873 IPERA UW43 SVT UW46 KEPAS UN741 DIKEB UL375 EGIMI UL695 ARUSI CR13 BISUK UL695 ANU B520 ELOPO |
| Aircraft | A21N/M-SDE2E3FGHILRWXY/LB2 |
Departure
| Time | 2026-04-25 19:45 |
|---|---|
| Airport | Tenerife Norte-Ciudad de La Laguna Airport (GCXO) |
Arrival
| Time | N/A |
|---|---|
| Airport | Princess Juliana International Airport (TNCM) |
| Time | Latitude | Longitude | Altitude | Speed | Heading |
|---|---|---|---|---|---|
| 2026-04-25 19:33 | 28.48696 | -16.34736 | 2084 ft | 0 kts | 35° |
| 2026-04-25 19:36 | 28.48692 | -16.34739 | 2084 ft | 2 kts | 35° |
| 2026-04-25 19:36 | 28.48680 | -16.34748 | 2084 ft | 2 kts | 35° |
| 2026-04-25 19:36 | 28.48668 | -16.34758 | 2084 ft | 2 kts | 35° |
| 2026-04-25 19:36 | 28.48656 | -16.34769 | 2084 ft | 2 kts | 50° |
| 2026-04-25 19:37 | 28.48647 | -16.34783 | 2084 ft | 2 kts | 63° |
| 2026-04-25 19:37 | 28.48642 | -16.34799 | 2084 ft | 2 kts | 78° |
| 2026-04-25 19:37 | 28.48640 | -16.34816 | 2084 ft | 2 kts | 92° |
| 2026-04-25 19:37 | 28.48642 | -16.34833 | 2084 ft | 1 kts | 105° |
| 2026-04-25 19:38 | 28.48644 | -16.34840 | 2084 ft | 1 kts | 109° |
| 2026-04-25 19:38 | 28.48645 | -16.34841 | 2084 ft | 0 kts | 109° |
| 2026-04-25 19:39 | 28.48642 | -16.34834 | 2084 ft | 2 kts | 121° |
| 2026-04-25 19:39 | 28.48610 | -16.34810 | 2084 ft | 8 kts | 142° |
| 2026-04-25 19:40 | 28.48575 | -16.34738 | 2084 ft | 13 kts | 111° |
| 2026-04-25 19:40 | 28.48535 | -16.34617 | 2084 ft | 19 kts | 111° |
| 2026-04-25 19:40 | 28.48482 | -16.34458 | 2084 ft | 23 kts | 111° |
| 2026-04-25 19:40 | 28.48426 | -16.34290 | 2084 ft | 22 kts | 110° |
| 2026-04-25 19:41 | 28.48372 | -16.34127 | 2084 ft | 22 kts | 111° |
| 2026-04-25 19:41 | 28.48310 | -16.33940 | 2084 ft | 27 kts | 110° |
| 2026-04-25 19:41 | 28.48239 | -16.33727 | 2084 ft | 29 kts | 110° |
| 2026-04-25 19:41 | 28.48214 | -16.33652 | 2084 ft | 29 kts | 111° |
| 2026-04-25 19:42 | 28.48092 | -16.33284 | 2084 ft | 30 kts | 110° |
| 2026-04-25 19:42 | 28.48017 | -16.33060 | 2084 ft | 30 kts | 111° |
| 2026-04-25 19:42 | 28.47944 | -16.32839 | 2084 ft | 29 kts | 111° |
| 2026-04-25 19:42 | 28.47875 | -16.32624 | 2084 ft | 28 kts | 111° |
| 2026-04-25 19:43 | 28.47794 | -16.32522 | 2084 ft | 13 kts | 173° |
| 2026-04-25 19:43 | 28.47740 | -16.32542 | 2084 ft | 5 kts | 248° |
| 2026-04-25 19:43 | 28.47747 | -16.32590 | 2084 ft | 6 kts | 290° |
| 2026-04-25 19:43 | 28.47750 | -16.32600 | 2084 ft | 7 kts | 291° |
| 2026-04-25 19:44 | 28.47854 | -16.32912 | 2085 ft | 75 kts | 291° |
| 2026-04-25 19:44 | 28.48113 | -16.33693 | 2085 ft | 134 kts | 291° |
| 2026-04-25 19:44 | 28.48506 | -16.34884 | 2086 ft | 184 kts | 292° |
| 2026-04-25 19:44 | 28.48956 | -16.36292 | 2483 ft | 195 kts | 292° |
| 2026-04-25 19:45 | 28.49384 | -16.37793 | 3065 ft | 201 kts | 290° |
| 2026-04-25 19:45 | 28.49791 | -16.39288 | 3762 ft | 202 kts | 290° |
| 2026-04-25 19:45 | 28.50205 | -16.40818 | 4160 ft | 207 kts | 290° |
| 2026-04-25 19:45 | 28.50641 | -16.42425 | 4386 ft | 219 kts | 290° |
| 2026-04-25 19:46 | 28.51104 | -16.44121 | 4606 ft | 232 kts | 290° |
| 2026-04-25 19:46 | 28.51605 | -16.45935 | 4805 ft | 247 kts | 290° |
| 2026-04-25 19:46 | 28.52138 | -16.47855 | 5053 ft | 260 kts | 290° |
| 2026-04-25 19:46 | 28.52701 | -16.49867 | 5314 ft | 273 kts | 290° |
| 2026-04-25 19:47 | 28.53414 | -16.51888 | 5612 ft | 280 kts | 307° |
| 2026-04-25 19:47 | 28.54832 | -16.53345 | 6057 ft | 277 kts | 337° |
| 2026-04-25 19:47 | 28.56694 | -16.53822 | 6567 ft | 275 kts | 5° |
| 2026-04-25 19:47 | 28.58540 | -16.53275 | 7062 ft | 276 kts | 24° |
| 2026-04-25 19:48 | 28.60287 | -16.52386 | 7579 ft | 277 kts | 30° |
| 2026-04-25 19:48 | 28.61733 | -16.50951 | 8006 ft | 281 kts | 56° |
| 2026-04-25 19:48 | 28.62458 | -16.48901 | 8475 ft | 285 kts | 82° |
| 2026-04-25 19:48 | 28.62341 | -16.46655 | 8970 ft | 289 kts | 102° |
| 2026-04-25 19:49 | 28.61718 | -16.44459 | 9481 ft | 292 kts | 110° |
| 2026-04-25 19:49 | 28.61468 | -16.43772 | 9638 ft | 293 kts | 111° |
| 2026-04-25 19:49 | 28.59992 | -16.40262 | 10325 ft | 301 kts | 115° |
| 2026-04-25 19:49 | 28.59001 | -16.38098 | 10530 ft | 312 kts | 116° |
| 2026-04-25 19:50 | 28.56882 | -16.33594 | 10936 ft | 335 kts | 116° |
| 2026-04-25 19:50 | 28.55757 | -16.31219 | 11134 ft | 345 kts | 117° |
| 2026-04-25 19:50 | 28.54552 | -16.28824 | 11314 ft | 357 kts | 123° |
| 2026-04-25 19:51 | 28.52943 | -16.26641 | 11492 ft | 369 kts | 135° |
| 2026-04-25 19:51 | 28.50883 | -16.24800 | 11673 ft | 381 kts | 144° |
| 2026-04-25 19:51 | 28.48614 | -16.23154 | 11952 ft | 387 kts | 146° |
| 2026-04-25 19:51 | 28.46329 | -16.21550 | 12363 ft | 389 kts | 146° |
| 2026-04-25 19:52 | 28.44034 | -16.19941 | 12784 ft | 391 kts | 146° |